METAR UND TAF INFORMATION
EDFH 180820Z 24003KT 9999 FEW012 M03/M04 Q1017

 FLUGHAFENKARTE

 RUNWAY INFORMATION
Runway 03 Runway length 12467 ft Runway width 148 ft
Runway elevation 1649 ft Runway displaced threshold 3461 ft Runway heading 32
Runway 21 Runway length 12467 ft Runway width 148 ft
Runway elevation 1595 ft Runway displaced threshold 984 ft Runway heading 212

 AIRPORT FREQUENCIES
Type AFIS Name LANGEN INF Frequency 123.525 MHZ
Type APP Name LANGEN RAD Frequency 125.6 MHZ
Type ATIS Name ATIS Frequency 136.35 MHZ
Type GND Name GND Frequency 121.975 MHZ
Type TWR Name TWR Frequency 119.65 MHZ

 AIRPORT NEAR NAVIGATION AIDS
Type NDB Name Hahn Frequency 376 KHZ
Type DME Name Hahn Frequency 116950 KHZ



Version 5.0.0: Changelog

Impressum | Datenschutzerklärung

Virtual Airlines Manager